createdAt,value
2023-01-13T00:00:34.299Z,9.10
2023-01-13T00:03:05.681Z,9.20
2023-01-13T00:05:33.784Z,9.20
2023-01-13T00:08:04.913Z,9.20
2023-01-13T00:10:33.821Z,9.10
2023-01-13T00:13:04.725Z,9.20
2023-01-13T00:15:33.906Z,9.20
2023-01-13T00:18:02.035Z,9.20
2023-01-13T00:20:30.090Z,9.10
2023-01-13T00:23:00.174Z,9.10
2023-01-13T00:25:28.479Z,9.10
2023-01-13T00:27:56.538Z,9.10
2023-01-13T00:30:25.903Z,9.00
2023-01-13T00:32:54.832Z,9.10
2023-01-13T00:35:22.877Z,9.00
2023-01-13T00:37:50.894Z,9.10
2023-01-13T00:40:19.219Z,9.10
2023-01-13T00:43:05.054Z,9.00
2023-01-13T00:45:34.415Z,9.00
2023-01-13T00:48:02.789Z,9.00
2023-01-13T00:50:31.232Z,9.00
2023-01-13T00:53:01.474Z,8.90
2023-01-13T00:55:32.286Z,8.90
2023-01-13T00:58:03.598Z,8.90
2023-01-13T01:00:32.296Z,9.00
2023-01-13T01:03:01.774Z,8.90
2023-01-13T01:05:29.771Z,8.90
2023-01-13T01:07:57.831Z,8.90
2023-01-13T01:10:25.904Z,9.00
2023-01-13T01:12:54.188Z,8.90
2023-01-13T01:15:22.251Z,9.00
2023-01-13T01:17:50.265Z,9.00
2023-01-13T01:20:20.052Z,9.00
2023-01-13T01:22:48.089Z,9.00
2023-01-13T01:25:16.257Z,9.00
2023-01-13T01:27:44.297Z,9.00
2023-01-13T01:30:14.129Z,9.00
2023-01-13T01:32:43.734Z,9.00
2023-01-13T01:35:11.769Z,9.00
2023-01-13T01:37:41.104Z,9.00
2023-01-13T01:40:11.094Z,9.00
2023-01-13T01:42:56.552Z,9.00
2023-01-13T01:45:27.875Z,8.90
2023-01-13T01:48:02.317Z,8.90
2023-01-13T01:50:32.022Z,8.90
2023-01-13T01:53:11.277Z,8.90
2023-01-13T01:55:40.297Z,8.90
2023-01-13T01:58:16.330Z,8.90
2023-01-13T02:00:44.412Z,8.90
2023-01-13T02:03:12.975Z,8.90
2023-01-13T02:05:41.311Z,8.80
2023-01-13T02:08:14.155Z,8.80
2023-01-13T02:10:47.420Z,8.70
2023-01-13T02:13:15.963Z,8.80
2023-01-13T02:15:53.252Z,8.70
2023-01-13T02:18:51.719Z,8.70
2023-01-13T02:22:10.755Z,8.70
2023-01-13T02:25:10.807Z,8.70
2023-01-13T02:28:37.926Z,8.70
2023-01-13T02:31:33.276Z,8.70
2023-01-13T02:34:10.414Z,8.60
2023-01-13T02:36:50.618Z,8.60
2023-01-13T02:39:25.961Z,8.60
2023-01-13T02:42:18.818Z,8.60
2023-01-13T02:44:55.821Z,8.50
2023-01-13T02:47:29.711Z,8.50
2023-01-13T02:50:03.215Z,8.50
2023-01-13T02:52:37.622Z,8.50
2023-01-13T02:55:11.790Z,8.50
2023-01-13T02:57:43.012Z,8.50
2023-01-13T03:00:14.323Z,8.50
2023-01-13T03:02:43.794Z,8.50
2023-01-13T03:05:16.955Z,8.40
2023-01-13T03:08:15.500Z,8.50
2023-01-13T03:11:02.203Z,8.50
2023-01-13T03:13:53.521Z,8.50
2023-01-13T03:16:35.617Z,8.50
2023-01-13T03:19:22.594Z,8.40
2023-01-13T03:21:58.127Z,8.50
2023-01-13T03:24:33.717Z,8.40
2023-01-13T03:27:08.371Z,8.40
2023-01-13T03:29:43.746Z,8.40
2023-01-13T03:32:16.133Z,8.40
2023-01-13T03:34:52.494Z,8.40
2023-01-13T03:37:31.631Z,8.30
2023-01-13T03:40:04.890Z,8.30
2023-01-13T03:42:37.654Z,8.30
2023-01-13T03:45:12.528Z,8.30
2023-01-13T03:47:50.191Z,8.30
2023-01-13T03:50:26.338Z,8.30
2023-01-13T03:53:01.998Z,8.30
2023-01-13T03:55:36.773Z,8.30
2023-01-13T03:58:14.290Z,8.20
2023-01-13T04:00:51.849Z,8.20
2023-01-13T04:03:27.977Z,8.20
2023-01-13T04:06:11.211Z,8.20
2023-01-13T04:08:45.494Z,8.20
2023-01-13T04:11:20.859Z,8.20
2023-01-13T04:13:51.050Z,8.20
2023-01-13T04:16:18.959Z,8.20
2023-01-13T04:18:46.901Z,8.30
2023-01-13T04:21:16.159Z,8.30
2023-01-13T04:23:44.050Z,8.30
2023-01-13T04:26:12.105Z,8.30
2023-01-13T04:28:40.825Z,8.30
2023-01-13T04:31:08.760Z,8.30
2023-01-13T04:33:37.019Z,8.30
2023-01-13T04:36:05.844Z,8.30
2023-01-13T04:38:35.075Z,8.30
2023-01-13T04:41:03.001Z,8.30
2023-01-13T04:43:31.942Z,8.30
2023-01-13T04:45:59.915Z,8.30
2023-01-13T04:48:27.825Z,8.30
2023-01-13T04:50:55.704Z,8.30
2023-01-13T04:53:23.585Z,8.30
2023-01-13T04:55:52.913Z,8.40
2023-01-13T04:58:22.887Z,8.40
2023-01-13T05:00:51.729Z,8.40
2023-01-13T05:03:19.679Z,8.40
2023-01-13T05:05:52.499Z,8.40
2023-01-13T05:08:20.438Z,8.40
2023-01-13T05:10:48.493Z,8.40
2023-01-13T05:13:35.226Z,8.40
2023-01-13T05:16:17.193Z,8.40
2023-01-13T05:18:45.822Z,8.40
2023-01-13T05:21:27.843Z,8.40
2023-01-13T05:24:13.399Z,8.40
2023-01-13T05:26:41.722Z,8.40
2023-01-13T05:29:10.986Z,8.40
2023-01-13T05:31:38.962Z,8.40
2023-01-13T05:34:13.987Z,8.40
2023-01-13T05:36:45.615Z,8.30
2023-01-13T05:39:13.876Z,8.40
2023-01-13T05:41:59.513Z,8.30
2023-01-13T05:44:28.871Z,8.30
2023-01-13T05:46:56.747Z,8.30
2023-01-13T05:49:25.299Z,8.30
2023-01-13T05:51:53.188Z,8.30
2023-01-13T05:54:21.163Z,8.30
2023-01-13T05:56:49.051Z,8.30
2023-01-13T05:59:16.957Z,8.40
2023-01-13T06:01:46.163Z,8.30
2023-01-13T06:04:14.205Z,8.40
2023-01-13T06:06:43.432Z,8.40
2023-01-13T06:09:11.318Z,8.50
2023-01-13T06:11:39.264Z,8.50
2023-01-13T06:14:07.209Z,8.50
2023-01-13T06:16:35.237Z,8.50
2023-01-13T06:19:08.866Z,8.40
2023-01-13T06:21:36.913Z,8.40
2023-01-13T06:24:06.124Z,8.50
2023-01-13T06:26:39.930Z,8.50
2023-01-13T06:29:10.090Z,8.50
2023-01-13T06:31:40.484Z,8.50
2023-01-13T06:34:14.246Z,8.50
2023-01-13T06:36:47.846Z,8.50
2023-01-13T06:39:21.050Z,8.50
2023-01-13T06:42:11.486Z,8.60
2023-01-13T06:44:39.960Z,8.60
2023-01-13T06:47:08.750Z,8.60
2023-01-13T06:49:37.977Z,8.60
2023-01-13T06:52:06.563Z,8.60
2023-01-13T06:54:35.380Z,8.50
2023-01-13T06:57:03.532Z,8.50
2023-01-13T06:59:34.265Z,8.50
2023-01-13T07:02:02.574Z,8.50
2023-01-13T07:04:30.751Z,8.40
2023-01-13T07:07:00.016Z,8.40
2023-01-13T07:09:27.983Z,8.40
2023-01-13T07:11:55.867Z,8.40
2023-01-13T07:14:55.549Z,8.40
2023-01-13T07:17:25.344Z,8.30
2023-01-13T07:19:53.691Z,8.30
2023-01-13T07:22:22.913Z,8.30
2023-01-13T07:24:50.873Z,8.30
2023-01-13T07:27:20.020Z,8.30
2023-01-13T07:29:48.080Z,8.30
2023-01-13T07:32:16.031Z,8.30
2023-01-13T07:34:43.935Z,8.30
2023-01-13T07:37:11.963Z,8.30
2023-01-13T07:39:41.186Z,8.30
2023-01-13T07:42:28.049Z,8.30
2023-01-13T07:44:56.237Z,8.30
2023-01-13T07:47:24.576Z,8.30
2023-01-13T07:49:52.573Z,8.30
2023-01-13T07:52:20.487Z,8.40
2023-01-13T07:54:50.109Z,8.40
2023-01-13T07:57:19.121Z,8.30
2023-01-13T07:59:47.089Z,8.30
2023-01-13T08:02:15.361Z,8.30
2023-01-13T08:04:46.262Z,8.40
2023-01-13T08:07:14.176Z,8.40
2023-01-13T08:09:42.100Z,8.40
2023-01-13T08:12:28.859Z,8.40
2023-01-13T08:14:57.058Z,8.50
2023-01-13T08:17:25.072Z,8.50
2023-01-13T08:19:53.013Z,8.50
2023-01-13T08:22:21.002Z,8.50
2023-01-13T08:24:48.941Z,8.50
2023-01-13T08:27:20.150Z,8.50
2023-01-13T08:29:48.113Z,8.50
2023-01-13T08:32:16.016Z,8.60
2023-01-13T08:35:02.611Z,8.50
2023-01-13T08:37:35.436Z,8.50
2023-01-13T08:40:03.590Z,8.60
2023-01-13T08:42:33.246Z,8.60
2023-01-13T08:45:01.225Z,8.50
2023-01-13T08:47:29.957Z,8.50
2023-01-13T08:49:57.949Z,8.60
2023-01-13T08:52:26.480Z,8.60
2023-01-13T08:54:54.451Z,8.60
2023-01-13T08:57:22.495Z,8.60
2023-01-13T08:59:51.970Z,8.60
2023-01-13T09:02:24.036Z,8.60
2023-01-13T09:04:52.970Z,8.60
2023-01-13T09:07:21.883Z,8.60
2023-01-13T09:09:49.863Z,8.60
2023-01-13T09:12:37.180Z,8.30
2023-01-13T09:15:07.801Z,8.20
2023-01-13T09:17:35.869Z,8.10
2023-01-13T09:20:03.875Z,7.90
2023-01-13T09:22:32.149Z,7.90
2023-01-13T09:25:00.112Z,7.80
2023-01-13T09:27:28.054Z,7.80
2023-01-13T09:29:56.054Z,7.90
2023-01-13T09:32:25.332Z,7.90
2023-01-13T09:35:01.237Z,7.90
2023-01-13T09:37:31.500Z,7.90
2023-01-13T09:39:59.433Z,7.90
2023-01-13T09:43:05.651Z,7.90
2023-01-13T09:45:42.528Z,7.80
2023-01-13T09:48:19.837Z,7.80
2023-01-13T09:51:05.251Z,7.80
2023-01-13T09:53:40.723Z,7.80
2023-01-13T09:56:11.810Z,7.90
2023-01-13T09:58:39.804Z,7.90
2023-01-13T10:01:21.279Z,7.90
2023-01-13T10:03:50.785Z,7.90
2023-01-13T10:06:27.631Z,7.90
2023-01-13T10:08:55.954Z,7.90
2023-01-13T10:11:44.361Z,7.90
2023-01-13T10:14:18.969Z,7.90
2023-01-13T10:16:53.335Z,7.90
2023-01-13T10:19:29.617Z,7.80
2023-01-13T10:22:28.489Z,7.80
2023-01-13T10:25:21.491Z,7.80
2023-01-13T10:27:52.246Z,7.80
2023-01-13T10:30:31.319Z,7.80
2023-01-13T10:33:07.135Z,7.70
2023-01-13T10:36:15.101Z,7.70
2023-01-13T10:38:46.036Z,7.80
2023-01-13T10:41:25.968Z,7.70
2023-01-13T10:44:04.456Z,7.70
2023-01-13T10:46:34.809Z,7.70
2023-01-13T10:49:23.938Z,7.70
2023-01-13T10:51:53.372Z,7.70
2023-01-13T10:54:24.448Z,7.70
2023-01-13T10:57:14.772Z,7.70
2023-01-13T10:59:43.086Z,7.70
2023-01-13T11:02:34.143Z,7.70
2023-01-13T11:05:22.794Z,7.70
2023-01-13T11:07:56.286Z,7.70
2023-01-13T11:10:27.481Z,7.80
2023-01-13T11:13:05.368Z,7.80
2023-01-13T11:15:45.196Z,7.90
2023-01-13T11:18:26.228Z,7.80
2023-01-13T11:20:57.979Z,7.90
2023-01-13T11:23:35.240Z,7.90
2023-01-13T11:26:13.533Z,7.90
2023-01-13T11:28:54.276Z,7.90
2023-01-13T11:31:29.485Z,7.90
2023-01-13T11:34:07.810Z,7.90
2023-01-13T11:36:46.034Z,7.90
2023-01-13T11:39:27.191Z,7.90
2023-01-13T11:42:20.044Z,7.90
2023-01-13T11:45:02.749Z,7.90
2023-01-13T11:47:33.294Z,7.90
2023-01-13T11:50:02.364Z,8.00
2023-01-13T11:52:58.392Z,8.00
2023-01-13T11:55:39.808Z,8.10
2023-01-13T11:59:00.955Z,8.10
2023-01-13T12:01:56.494Z,8.10
2023-01-13T12:04:34.420Z,8.20
2023-01-13T12:07:18.344Z,8.20
2023-01-13T12:10:05.194Z,8.10
2023-01-13T12:12:51.480Z,8.10
2023-01-13T12:15:51.615Z,8.10
2023-01-13T12:18:43.843Z,8.30
2023-01-13T12:21:22.388Z,8.30
2023-01-13T12:24:06.783Z,8.40
2023-01-13T12:26:41.681Z,8.50
2023-01-13T12:29:19.007Z,8.70
2023-01-13T12:31:51.532Z,9.70
2023-01-13T12:34:43.615Z,9.80
2023-01-13T12:37:23.135Z,9.60
2023-01-13T12:40:12.096Z,9.40
2023-01-13T12:43:07.186Z,9.80
2023-01-13T12:45:36.681Z,9.70
2023-01-13T12:48:06.987Z,10.30
2023-01-13T12:50:41.917Z,11.10
2023-01-13T12:53:38.724Z,11.80
2023-01-13T12:56:39.728Z,12.40
2023-01-13T12:59:35.981Z,12.70
2023-01-13T13:02:32.493Z,12.10
2023-01-13T13:05:44.678Z,11.70
2023-01-13T13:08:22.420Z,11.60
2023-01-13T13:11:33.241Z,11.50
2023-01-13T13:14:03.016Z,10.50
2023-01-13T13:16:56.223Z,10.20
2023-01-13T13:19:49.383Z,10.30
2023-01-13T13:22:37.078Z,10.40
2023-01-13T13:25:27.784Z,10.70
2023-01-13T13:28:18.552Z,10.90
2023-01-13T13:31:25.371Z,11.00
2023-01-13T13:34:15.151Z,10.90
2023-01-13T13:37:05.235Z,10.90
2023-01-13T13:39:52.144Z,11.00
2023-01-13T13:42:51.921Z,11.10
2023-01-13T13:45:40.394Z,10.90
2023-01-13T13:48:24.359Z,10.50
2023-01-13T13:50:59.903Z,10.00
2023-01-13T13:53:34.062Z,9.80
2023-01-13T13:56:08.208Z,9.60
2023-01-13T13:58:37.155Z,9.40
2023-01-13T14:01:07.126Z,9.30
2023-01-13T14:03:40.042Z,9.20
2023-01-13T14:06:25.217Z,9.10
2023-01-13T14:08:54.513Z,9.00
2023-01-13T14:11:29.779Z,8.90
2023-01-13T14:14:06.498Z,8.90
2023-01-13T14:16:36.478Z,8.80
2023-01-13T14:19:04.593Z,8.80
2023-01-13T14:21:32.997Z,8.80
2023-01-13T14:24:15.372Z,8.70
2023-01-13T14:26:43.481Z,8.70
2023-01-13T14:29:19.121Z,8.60
2023-01-13T14:31:48.851Z,8.40
2023-01-13T14:34:32.147Z,8.30
2023-01-13T14:37:03.075Z,8.10
2023-01-13T14:39:40.710Z,8.10
2023-01-13T14:42:17.006Z,8.00
2023-01-13T14:44:48.514Z,7.90
2023-01-13T14:47:25.560Z,7.70
2023-01-13T14:50:03.905Z,7.00
2023-01-13T14:52:35.818Z,6.60
2023-01-13T14:55:29.472Z,6.20
2023-01-13T14:58:25.031Z,6.10
2023-01-13T15:01:39.395Z,6.00
2023-01-13T15:04:17.620Z,6.00
2023-01-13T15:06:48.562Z,6.20
2023-01-13T15:09:27.976Z,6.20
2023-01-13T15:11:58.770Z,6.20
2023-01-13T15:14:33.663Z,6.20
2023-01-13T15:17:02.863Z,6.20
2023-01-13T15:19:30.728Z,6.10
2023-01-13T15:21:58.648Z,6.10
2023-01-13T15:24:26.606Z,6.10
2023-01-13T15:26:54.537Z,6.10
2023-01-13T15:29:24.477Z,6.00
2023-01-13T15:31:52.415Z,6.00
2023-01-13T15:34:21.829Z,5.90
2023-01-13T15:36:50.706Z,5.90
2023-01-13T15:39:18.738Z,5.90
2023-01-13T15:42:06.242Z,5.80
2023-01-13T15:44:53.210Z,5.80
2023-01-13T15:47:25.321Z,5.80
2023-01-13T15:49:53.253Z,5.80
2023-01-13T15:52:23.565Z,5.90
2023-01-13T15:54:52.659Z,5.90
2023-01-13T15:57:25.520Z,5.90
2023-01-13T15:59:58.510Z,5.90
2023-01-13T16:02:27.125Z,5.70
2023-01-13T16:04:55.080Z,5.60
2023-01-13T16:07:25.981Z,5.50
2023-01-13T16:09:54.008Z,5.50
2023-01-13T16:12:22.127Z,5.50
2023-01-13T16:14:50.150Z,5.50
2023-01-13T16:17:22.652Z,5.40
2023-01-13T16:19:51.209Z,5.50
2023-01-13T16:22:19.539Z,5.50
2023-01-13T16:24:48.268Z,5.50
2023-01-13T16:27:19.034Z,5.60
2023-01-13T16:29:48.126Z,5.50
2023-01-13T16:32:16.868Z,5.50
2023-01-13T16:34:46.800Z,5.60
2023-01-13T16:37:21.810Z,5.60
2023-01-13T16:39:49.907Z,5.60
2023-01-13T16:42:17.954Z,5.60
2023-01-13T16:44:46.629Z,5.60
2023-01-13T16:47:16.994Z,5.60
2023-01-13T16:49:46.638Z,5.60
2023-01-13T16:52:14.770Z,5.60
2023-01-13T16:54:42.808Z,5.70
2023-01-13T16:57:13.810Z,5.70
2023-01-13T16:59:41.743Z,5.70
2023-01-13T17:02:15.145Z,5.70
2023-01-13T17:04:43.452Z,5.60
2023-01-13T17:07:17.747Z,5.70
2023-01-13T17:09:45.752Z,5.80
2023-01-13T17:12:13.714Z,5.80
2023-01-13T17:14:43.288Z,5.90
2023-01-13T17:17:22.731Z,5.90
2023-01-13T17:19:51.375Z,5.90
2023-01-13T17:22:21.028Z,5.90
2023-01-13T17:24:49.011Z,5.90
2023-01-13T17:27:18.562Z,5.90
2023-01-13T17:29:46.876Z,5.90
2023-01-13T17:32:18.203Z,6.00
2023-01-13T17:34:46.800Z,6.10
2023-01-13T17:37:14.959Z,6.10
2023-01-13T17:39:46.388Z,6.10
2023-01-13T17:42:14.797Z,6.10
2023-01-13T17:44:43.193Z,6.10
2023-01-13T17:47:11.209Z,6.10
2023-01-13T17:49:39.128Z,6.10
2023-01-13T17:52:07.660Z,6.10
2023-01-13T17:54:35.830Z,6.20
2023-01-13T17:57:05.211Z,6.20
2023-01-13T17:59:33.277Z,6.20
2023-01-13T18:02:01.470Z,6.10
2023-01-13T18:04:30.840Z,6.10
2023-01-13T18:06:58.857Z,6.20
2023-01-13T18:09:27.007Z,6.10
2023-01-13T18:11:54.966Z,6.20
2023-01-13T18:14:24.741Z,6.10
2023-01-13T18:16:53.134Z,6.20
2023-01-13T18:19:39.035Z,6.10
2023-01-13T18:22:25.248Z,6.20
2023-01-13T18:25:10.819Z,6.20
2023-01-13T18:27:41.223Z,6.30
2023-01-13T18:30:13.856Z,6.30
2023-01-13T18:32:41.967Z,6.30
2023-01-13T18:35:10.935Z,6.30
2023-01-13T18:37:40.659Z,6.30
2023-01-13T18:40:11.676Z,6.30
2023-01-13T18:42:51.396Z,6.30
2023-01-13T18:45:24.278Z,6.30
2023-01-13T18:47:53.219Z,6.30
2023-01-13T18:50:22.346Z,6.30
2023-01-13T18:52:50.771Z,6.40
2023-01-13T18:55:19.071Z,6.40
2023-01-13T18:57:47.856Z,6.30
2023-01-13T19:00:19.874Z,6.40
2023-01-13T19:02:50.717Z,6.30
2023-01-13T19:05:19.435Z,6.40
2023-01-13T19:07:50.944Z,6.40
2023-01-13T19:10:19.786Z,6.40
2023-01-13T19:12:49.435Z,6.40
2023-01-13T19:15:17.726Z,6.40
2023-01-13T19:17:46.643Z,6.50
2023-01-13T19:20:16.259Z,6.50
2023-01-13T19:22:46.250Z,6.50
2023-01-13T19:25:14.266Z,6.50
2023-01-13T19:27:42.736Z,6.50
2023-01-13T19:30:12.543Z,6.50
2023-01-13T19:32:40.491Z,6.60
2023-01-13T19:35:09.299Z,6.70
2023-01-13T19:37:38.562Z,6.70
2023-01-13T19:40:09.364Z,6.80
2023-01-13T19:42:55.313Z,6.80
2023-01-13T19:45:30.802Z,6.80
2023-01-13T19:48:01.908Z,6.80
2023-01-13T19:50:30.144Z,6.90
2023-01-13T19:52:59.564Z,6.90
2023-01-13T19:55:28.087Z,6.90
2023-01-13T19:57:56.144Z,6.90
2023-01-13T20:00:24.269Z,6.90
2023-01-13T20:02:53.357Z,7.00
2023-01-13T20:05:25.882Z,6.90
2023-01-13T20:07:54.258Z,6.90
2023-01-13T20:10:24.811Z,6.90
2023-01-13T20:12:52.829Z,6.90
2023-01-13T20:15:20.775Z,6.90
2023-01-13T20:17:49.005Z,7.00
2023-01-13T20:20:18.562Z,6.90
2023-01-13T20:22:46.662Z,6.90
2023-01-13T20:25:16.939Z,6.90
2023-01-13T20:27:48.634Z,6.90
2023-01-13T20:30:17.110Z,6.90
2023-01-13T20:32:45.488Z,6.90
2023-01-13T20:35:14.054Z,6.90
2023-01-13T20:37:43.951Z,6.90
2023-01-13T20:40:17.041Z,6.80
2023-01-13T20:42:47.390Z,6.80
2023-01-13T20:45:20.718Z,6.80
2023-01-13T20:47:48.934Z,6.80
2023-01-13T20:50:17.600Z,6.80
2023-01-13T20:52:46.360Z,6.70
2023-01-13T20:55:17.171Z,6.80
2023-01-13T20:57:48.702Z,6.70
2023-01-13T21:00:18.310Z,6.70
2023-01-13T21:02:46.318Z,6.80
2023-01-13T21:05:14.312Z,6.80
2023-01-13T21:07:42.232Z,6.80
2023-01-13T21:10:12.184Z,6.80
2023-01-13T21:12:57.801Z,6.80
2023-01-13T21:15:27.752Z,6.80
2023-01-13T21:18:13.503Z,6.80
2023-01-13T21:20:41.457Z,6.80
2023-01-13T21:23:11.532Z,6.80
2023-01-13T21:25:40.172Z,6.80
2023-01-13T21:28:11.419Z,6.90
2023-01-13T21:30:41.175Z,6.90
2023-01-13T21:33:13.747Z,6.90
2023-01-13T21:35:41.897Z,6.90
2023-01-13T21:38:12.667Z,7.00
2023-01-13T21:40:40.566Z,6.90
2023-01-13T21:43:30.789Z,6.90
2023-01-13T21:46:20.224Z,6.90
2023-01-13T21:48:48.097Z,6.90
2023-01-13T21:51:15.999Z,7.00
2023-01-13T21:53:43.900Z,7.00
2023-01-13T21:56:11.803Z,7.00
2023-01-13T21:58:40.023Z,7.00
2023-01-13T22:01:10.347Z,7.00
2023-01-13T22:03:58.765Z,7.00
2023-01-13T22:06:27.426Z,7.00
2023-01-13T22:08:56.355Z,7.00
2023-01-13T22:11:24.316Z,7.00
2023-01-13T22:14:09.122Z,7.00
2023-01-13T22:16:41.978Z,7.00
2023-01-13T22:19:11.613Z,7.00
2023-01-13T22:21:39.930Z,7.00
2023-01-13T22:24:08.696Z,7.00
2023-01-13T22:26:36.625Z,7.00
2023-01-13T22:29:04.886Z,6.90
2023-01-13T22:31:32.948Z,6.90
2023-01-13T22:34:02.233Z,6.90
2023-01-13T22:36:30.407Z,6.90
2023-01-13T22:39:00.324Z,6.80
2023-01-13T22:41:28.323Z,6.90
2023-01-13T22:43:56.266Z,6.80
2023-01-13T22:46:24.209Z,6.80
2023-01-13T22:48:53.875Z,6.80
2023-01-13T22:51:23.766Z,6.80
2023-01-13T22:53:52.079Z,6.80
2023-01-13T22:56:23.401Z,6.80
2023-01-13T22:58:54.667Z,6.80
2023-01-13T23:01:23.401Z,6.80
2023-01-13T23:03:52.226Z,6.80
2023-01-13T23:06:23.420Z,6.80
2023-01-13T23:08:52.525Z,6.80
2023-01-13T23:11:24.621Z,6.70
2023-01-13T23:13:58.149Z,6.70
2023-01-13T23:16:27.883Z,6.60
2023-01-13T23:18:56.271Z,6.60
2023-01-13T23:21:28.690Z,6.50
2023-01-13T23:23:58.823Z,6.50
2023-01-13T23:26:27.928Z,6.50
2023-01-13T23:29:00.656Z,6.50
2023-01-13T23:31:28.969Z,6.50
2023-01-13T23:33:56.907Z,6.50
2023-01-13T23:36:28.718Z,6.40
2023-01-13T23:38:58.749Z,6.30
2023-01-13T23:41:28.800Z,6.40
2023-01-13T23:43:59.397Z,6.30
2023-01-13T23:46:28.393Z,6.30
2023-01-13T23:48:56.348Z,6.20
2023-01-13T23:51:27.502Z,6.20
2023-01-13T23:53:55.517Z,6.20
2023-01-13T23:56:26.289Z,6.30
2023-01-13T23:58:55.620Z,6.30
